Latest Weather Observations for Condobolin Airport

IDN60801

Issued at 1:35 am EST Wednesday 1 October 2014 (issued every 30 minutes, with the page automatically refreshed every 10 minutes)

About weather observations | Map of weather stations | Latest weather observations for NSW | Other Formats
Station Details ID: 050137 Name: CONDOBOLIN AIRPORT AWS Lat: -33.07 Lon: 147.21 Height: 192.6 m
Data from the previous 72 hours. | See also: Recent months at Condobolin Airport
Date/Time
EST
Temp
°C
App
Temp
°C
Dew
Point
Rel
Hum
%
Delta-T
°C
Wind Press
QNH
hPa
Press
MSL
hPa
Rain
since 9 am
mm
Dir
 
Spd
km/h
Gust
km/h
Spd
kts
Gust
kts
01/01:30am 13.1 7.3 4.3 55 4.0 SSW 24 32 13 17 1018.4 1018.4 0.0
01/01:00am 13.5 8.8 5.9 60 3.6 SSW 20 24 11 13 1018.0 1017.9 0.0
01/12:30am 14.4 8.6 6.3 58 3.9 SSW 26 35 14 19 1017.7 1017.6 0.0
01/12:00am 14.9 8.5 7.0 59 3.9 SSW 30 43 16 23 1017.1 1017.0 0.0
 
Date/Time
EST
Temp
°C
App
Temp
°C
Dew
Point
Rel
Hum
%
Delta-T
°C
Wind Press
QNH
hPa
Press
MSL
hPa
Rain
since 9 am
mm
Dir
 
Spd
km/h
Gust
km/h
Spd
kts
Gust
kts
30/11:30pm 15.9 7.8 7.1 56 4.4 SSW 39 50 21 27 1016.4 1016.3 0.0
30/11:04pm 17.1 9.0 6.9 51 5.1 SSW 39 57 21 31 1015.6 1015.5 0.0
30/11:00pm 17.4 8.9 6.9 50 5.3 SSW 41 57 22 31 1015.5 1015.4 0.0
30/10:47pm 19.0 9.5 4.7 39 7.0 SSW 44 52 24 28 1014.8 1014.7 0.0
30/10:39pm 21.3 12.6 -3.2 19 10.4 SW 33 43 18 23 1014.1 1014.0 0.0
30/10:30pm 21.0 14.8 -3.5 19 10.3 W 20 24 11 13 1013.3 1013.2 0.0
30/10:00pm 18.4 12.8 -3.1 23 8.9 NW 17 19 9 10 1012.9 1012.8 0.0
30/09:30pm 17.0 11.8 -3.1 25 8.2 NW 15 17 8 9 1012.7 1012.6 0.0
30/09:00pm 18.8 13.9 -3.3 22 9.1 NW 13 15 7 8 1012.5 1012.4 0.0
30/08:30pm 19.1 14.1 -4.4 20 9.5 W 13 15 7 8 1012.5 1012.4 0.0
30/08:00pm 19.6 15.2 -2.7 22 9.4 WNW 11 13 6 7 1012.2 1012.1 0.0
30/07:30pm 19.4 14.7 -1.7 24 9.0 WNW 13 15 7 8 1011.9 1011.8 0.0
30/07:00pm 21.9 17.1 -2.7 19 10.6 WNW 13 15 7 8 1011.4 1011.3 0.0
30/06:30pm 25.8 20.3 -1.9 16 12.5 W 17 24 9 13 1011.0 1010.9 0.0
30/06:00pm 27.0 21.3 -0.9 16 13.0 W 19 32 10 17 1010.7 1010.6 0.0
30/05:35pm 28.4 21.0 -0.7 15 13.7 W 28 46 15 25 1010.5 1010.4 0.0
30/05:30pm 28.5 21.5 -0.6 15 13.7 W 26 46 14 25 1010.4 1010.3 0.0
30/05:00pm 29.3 21.2 0.0 15 14.1 W 32 43 17 23 1010.5 1010.4 0.0
30/04:30pm 30.3 22.6 -0.1 14 14.6 WNW 30 44 16 24 1010.4 1010.3 0.0
30/04:00pm 30.5 23.2 0.0 14 14.8 WNW 28 35 15 19 1010.4 1010.3 0.0
30/03:30pm 30.3 22.2 -0.1 14 14.6 W 32 46 17 25 1010.8 1010.7 0.0
30/03:06pm 30.8 22.6 0.2 14 14.9 WNW 33 56 18 30 1011.1 1011.0 0.0
30/03:00pm 30.6 22.9 0.1 14 14.8 WNW 30 39 16 21 1011.3 1011.2 0.0
30/02:33pm 30.8 23.7 1.2 15 14.6 W 28 48 15 26 1011.4 1011.3 0.0
30/02:30pm 30.7 23.6 1.1 15 14.6 W 28 39 15 21 1011.5 1011.4 0.0
30/02:00pm 31.2 23.0 0.6 14 15.0 W 33 48 18 26 1011.8 1011.7 0.0
30/01:37pm 31.1 23.9 0.5 14 15.0 WNW 28 54 15 29 1011.8 1011.7 0.0
30/01:30pm 30.8 23.7 1.2 15 14.6 W 28 35 15 19 1012.0 1011.9 0.0
30/01:04pm 30.5 22.8 0.0 14 14.7 W 30 48 16 26 1012.3 1012.2 0.0
30/01:00pm 30.8 22.6 0.2 14 14.9 WNW 33 48 18 26 1012.4 1012.3 0.0
30/12:38pm 30.5 22.6 1.0 15 14.5 W 32 50 17 27 1012.6 1012.5 0.0
30/12:30pm 30.5 23.7 1.0 15 14.5 W 26 39 14 21 1012.8 1012.7 0.0
30/12:00pm 29.6 22.8 1.1 16 14.0 W 26 33 14 18 1013.0 1012.9 0.0
30/11:30am 29.4 23.8 1.0 16 13.9 NNW 20 26 11 14 1013.2 1013.1 0.0
30/11:00am 29.4 24.1 1.8 17 13.7 W 19 28 10 15 1013.5 1013.4 0.0
30/10:30am 27.9 22.3 1.4 18 12.9 WNW 20 33 11 18 1014.1 1014.0 0.0
30/10:00am 27.8 23.5 1.3 18 12.9 NW 13 20 7 11 1014.5 1014.4 0.0
30/09:30am 25.8 21.4 0.5 19 11.9 WNW 13 19 7 10 1014.8 1014.7 0.0
30/09:00am 25.1 20.3 -0.1 19 11.7 NNW 15 17 8 9 1014.7 1014.6 0.0
30/08:30am 24.4 20.8 0.7 21 11.1 NNW 9 15 5 8 1014.8 1014.7 0.0
30/08:00am 23.3 19.0 1.0 23 10.4 NNW 13 17 7 9 1014.9 1014.8 0.0
30/07:30am 20.9 18.7 5.3 36 7.8 NNW 6 9 3 5 1014.7 1014.6 0.0
30/07:00am 17.0 14.6 4.3 43 6.0 NNW 6 9 3 5 1014.8 1014.7 0.0
30/06:30am 13.7 11.5 3.5 50 4.6 NNW 4 9 2 5 1015.0 1014.9 0.0
30/06:00am 14.7 11.5 2.9 45 5.3 NNW 9 17 5 9 1014.5 1014.4 0.0
30/05:30am 14.3 11.5 3.2 47 5.0 NNW 7 9 4 5 1013.7 1013.6 0.0
30/05:00am 13.4 10.9 3.5 51 4.5 NNW 6 11 3 6 1013.6 1013.5 0.0
30/04:30am 13.7 10.9 2.3 46 5.1 NNW 6 7 3 4 1013.5 1013.4 0.0
30/04:00am 15.7 13.4 2.5 41 6.0 NNW 4 7 2 4 1012.9 1012.8 0.0
30/03:30am 16.9 14.4 1.8 36 6.8 WNW 4 7 2 4 1012.9 1012.8 0.0
30/03:00am 18.4 13.7 1.0 31 7.8 WSW 15 20 8 11 1013.3 1013.2 0.0
30/02:30am 21.1 15.2 1.4 27 9.1 N 22 30 12 16 1012.8 1012.7 0.0
30/02:00am 20.4 14.1 1.8 29 8.6 N 24 28 13 15 1012.8 1012.7 0.0
30/01:30am 20.5 14.3 1.9 29 8.7 N 24 30 13 16 1012.9 1012.8 0.0
30/01:00am 19.9 14.5 1.4 29 8.5 N 19 22 10 12 1013.6 1013.5 0.0
30/12:30am 22.7 16.2 0.5 23 10.2 N 24 32 13 17 1013.6 1013.5 0.0
30/12:00am 21.5 16.5 1.2 26 9.4 NNW 17 26 9 14 1013.9 1013.9 0.0
 
Date/Time
EST
Temp
°C
App
Temp
°C
Dew
Point
Rel
Hum
%
Delta-T
°C
Wind Press
QNH
hPa
Press
MSL
hPa
Rain
since 9 am
mm
Dir
 
Spd
km/h
Gust
km/h
Spd
kts
Gust
kts
29/11:30pm 22.6 17.4 0.4 23 10.2 NNW 17 24 9 13 1014.2 1014.1 0.0
29/11:00pm 20.7 15.7 1.6 28 8.8 N 17 20 9 11 1014.3 1014.2 0.0
29/10:30pm 16.7 14.7 2.3 38 6.5 NNW 2 7 1 4 1014.6 1014.5 0.0
29/10:00pm 18.4 15.0 1.9 33 7.5 NNW 9 13 5 7 1014.7 1014.6 0.0
29/09:30pm 16.2 14.6 2.2 39 6.3 CALM 0 0 0 0 1014.7 1014.6 0.0
29/09:00pm 16.6 14.3 0.7 34 7.0 NNW 2 6 1 3 1014.7 1014.6 0.0
29/08:30pm 19.4 16.6 -0.6 26 8.8 NNW 4 7 2 4 1014.6 1014.5 0.0
29/08:00pm 21.5 16.9 -1.1 22 10.0 NNW 13 15 7 8 1014.3 1014.2 0.0
29/07:30pm 22.8 18.0 -2.7 18 11.1 NNW 13 15 7 8 1014.1 1014.0 0.0
29/07:00pm 24.6 19.5 -2.0 17 11.9 NNW 15 19 8 10 1013.8 1013.7 0.0
29/06:30pm 23.7 19.0 -2.0 18 11.4 NW 13 17 7 9 1013.5 1013.4 0.0
29/06:00pm 26.5 21.7 -2.2 15 13.0 WNW 13 17 7 9 1013.2 1013.1 0.0
29/05:30pm 29.2 23.1 -2.0 13 14.4 NW 20 28 11 15 1013.0 1012.9 0.0
29/05:00pm 30.3 24.2 -2.2 12 15.1 NW 20 32 11 17 1012.7 1012.6 0.0
29/04:30pm 30.6 23.4 -2.0 12 15.2 WNW 26 35 14 19 1012.6 1012.5 0.0
29/04:00pm 31.1 24.7 -1.6 12 15.5 NW 22 28 12 15 1012.6 1012.5 0.0
29/03:30pm 31.3 24.9 -1.5 12 15.5 WNW 22 33 12 18 1012.7 1012.6 0.0
29/03:00pm 31.2 25.2 -1.5 12 15.5 WNW 20 33 11 18 1012.8 1012.7 0.0
29/02:30pm 31.5 24.5 -0.2 13 15.4 WNW 26 44 14 24 1013.2 1013.1 0.0
29/02:00pm 31.0 23.8 -1.7 12 15.4 WNW 26 32 14 17 1013.5 1013.4 0.0
29/01:30pm 30.7 24.2 0.2 14 14.8 NW 24 37 13 20 1013.9 1013.9 0.0
29/01:00pm 30.3 23.4 -0.1 14 14.6 NW 26 39 14 21 1014.5 1014.4 0.0
29/12:30pm 29.6 23.0 -0.7 14 14.4 NW 24 33 13 18 1014.8 1014.7 0.0
29/12:00pm 28.5 21.9 -0.6 15 13.7 NW 24 33 13 18 1015.3 1015.2 0.0
29/11:30am 28.0 22.8 -0.1 16 13.3 WNW 17 28 9 15 1015.5 1015.4 0.0
29/11:00am 27.2 21.6 0.1 17 12.8 NNW 19 28 10 15 1015.9 1015.8 0.0
29/10:30am 25.9 20.4 0.5 19 12.0 NW 19 24 10 13 1016.1 1016.0 0.0
29/10:00am 25.4 20.2 0.1 19 11.8 NNW 17 26 9 14 1016.3 1016.2 0.0
29/09:30am 25.0 19.6 1.2 21 11.3 NNW 19 26 10 14 1016.6 1016.5 0.0
29/09:00am 23.5 20.0 1.2 23 10.5 NW 9 15 5 8 1016.9 1016.8 0.0
29/08:30am 22.1 19.1 2.2 27 9.4 NW 7 11 4 6 1017.1 1017.0 0.0
29/08:00am 19.5 16.6 2.8 33 7.8 NW 7 11 4 6 1016.9 1016.8 0.0
29/07:30am 17.8 14.6 3.3 38 6.8 W 9 11 5 6 1017.0 1016.9 0.0
29/07:00am 17.1 11.0 2.7 38 6.6 WSW 24 33 13 18 1016.8 1016.7 0.0
29/06:30am 16.7 11.9 2.7 39 6.4 N 17 24 9 13 1015.3 1015.2 0.0
29/06:00am 16.2 10.5 2.6 40 6.2 N 22 28 12 15 1014.6 1014.5 0.0
29/05:30am 15.8 10.4 2.6 41 6.0 N 20 24 11 13 1014.3 1014.2 0.0
29/05:00am 16.3 10.9 2.7 40 6.2 N 20 26 11 14 1013.8 1013.7 0.0
29/04:30am 15.7 10.4 3.2 43 5.7 N 20 24 11 13 1013.7 1013.6 0.0
29/04:00am 15.6 10.9 3.1 43 5.7 N 17 22 9 12 1013.9 1013.9 0.0
29/03:30am 16.3 10.2 3.0 41 6.1 N 24 30 13 16 1013.8 1013.7 0.0
29/03:00am 16.8 10.4 3.1 40 6.3 N 26 32 14 17 1014.1 1014.0 0.0
29/02:30am 16.4 10.0 3.1 41 6.1 N 26 32 14 17 1014.3 1014.2 0.0
29/02:00am 16.2 10.2 3.3 42 6.0 N 24 28 13 15 1014.9 1014.8 0.0
29/01:30am 16.6 11.0 3.3 41 6.2 N 22 28 12 15 1015.4 1015.3 0.0
29/01:00am 17.0 11.4 3.3 40 6.4 N 22 28 12 15 1015.6 1015.5 0.0
29/12:30am 17.8 11.7 2.9 37 6.9 N 24 28 13 15 1015.7 1015.6 0.0
29/12:00am 18.3 11.9 3.0 36 7.1 N 26 33 14 18 1015.8 1015.7 0.0
 
Date/Time
EST
Temp
°C
App
Temp
°C
Dew
Point
Rel
Hum
%
Delta-T
°C
Wind Press
QNH
hPa
Press
MSL
hPa
Rain
since 9 am
mm
Dir
 
Spd
km/h
Gust
km/h
Spd
kts
Gust
kts
28/11:30pm 18.7 11.9 3.3 36 7.3 N 28 37 15 20 1015.7 1015.6 0.0
28/11:00pm 18.8 12.1 3.4 36 7.3 N 28 39 15 21 1015.7 1015.6 0.0
28/10:30pm 18.8 12.1 3.4 36 7.3 N 28 35 15 19 1016.0 1015.9 0.0
28/10:00pm 19.2 12.8 3.0 34 7.6 N 26 33 14 18 1016.2 1016.1 0.0
28/09:30pm 19.2 13.5 3.0 34 7.6 N 22 30 12 16 1016.3 1016.2 0.0
28/09:00pm 19.2 13.5 3.0 34 7.6 N 22 28 12 15 1016.5 1016.4 0.0
28/08:30pm 19.3 14.0 3.1 34 7.6 N 20 26 11 14 1016.5 1016.4 0.0
28/08:00pm 19.2 14.1 3.0 34 7.6 N 19 20 10 11 1016.3 1016.2 0.0
28/07:30pm 19.7 15.0 3.0 33 7.9 N 17 20 9 11 1016.1 1016.0 0.0
28/07:00pm 20.3 15.4 2.2 30 8.4 N 17 19 9 10 1015.7 1015.6 0.0
28/06:30pm 21.8 16.9 2.0 27 9.3 N 17 20 9 11 1015.4 1015.3 0.0
28/06:00pm 23.5 17.5 1.2 23 10.5 N 22 30 12 16 1014.8 1014.7 0.0
28/05:30pm 24.8 18.4 1.0 21 11.2 N 24 32 13 17 1014.8 1014.7 0.0
28/05:00pm 25.7 19.7 1.1 20 11.7 N 22 30 12 16 1014.7 1014.6 0.0
28/04:30pm 26.1 20.3 0.0 18 12.2 N 20 30 11 16 1014.8 1014.7 0.0
28/04:00pm 26.8 20.7 0.5 18 12.5 NNW 22 33 12 18 1015.0 1014.9 0.0
28/03:30pm 26.6 20.0 -0.4 17 12.6 NNW 24 35 13 19 1015.3 1015.2 0.0
28/03:00pm 26.9 20.8 0.6 18 12.5 N 22 32 12 17 1015.6 1015.5 0.0
28/02:30pm 26.6 20.9 0.4 18 12.4 NNW 20 28 11 15 1016.2 1016.1 0.0
28/02:00pm 27.0 21.5 2.1 20 12.2 N 20 32 11 17 1016.8 1016.7 0.0
28/01:30pm 26.3 20.8 1.6 20 11.9 WNW 20 24 11 13 1017.4 1017.3 0.0
28/01:00pm 26.4 21.9 2.3 21 11.8 N 15 28 8 15 1018.0 1017.9 0.0
28/12:30pm 25.9 20.3 1.2 20 11.8 NNE 20 30 11 16 1018.7 1018.7 0.0
28/12:00pm 25.6 21.9 2.3 22 11.3 N 11 28 6 15 1019.6 1019.5 0.0
28/11:30am 25.2 21.5 4.3 26 10.5 N 13 20 7 11 1020.0 1019.9 0.0
28/11:00am 24.3 20.7 5.1 29 9.7 NNW 13 19 7 10 1020.4 1020.3 0.0
28/10:30am 23.4 19.0 4.9 30 9.3 N 17 22 9 12 1020.7 1020.6 0.0
28/10:00am 22.7 18.4 5.2 32 8.8 N 17 28 9 15 1021.1 1021.0 0.0
28/09:30am 21.8 17.3 6.1 36 8.0 N 19 26 10 14 1021.5 1021.4 0.0
28/09:00am 21.2 16.2 6.3 38 7.6 N 22 30 12 16 1021.6 1021.5 0.0
28/08:30am 19.8 14.9 6.9 43 6.6 NNE 22 30 12 16 1021.6 1021.5 0.0
28/08:00am 17.6 12.4 7.1 50 5.3 NNE 24 28 13 15 1021.6 1021.5 0.0
28/07:30am 16.1 11.9 7.3 56 4.4 NNE 19 24 10 13 1021.6 1021.5 0.0
28/07:24am 15.4 12.8 7.7 60 3.9 E 11 20 6 11 1021.6 1021.5 0.0
28/07:00am 10.3 9.3 5.7 73 2.1 CALM 0 0 0 0 1021.6 1021.5 0.0
28/06:30am 6.7 5.5 4.7 87 0.9 CALM 0 0 0 0 1021.2 1021.1 0.0
28/06:00am 5.0 3.4 2.2 82 1.1 CALM 0 0 0 0 1020.9 1020.8 0.0
28/05:30am 5.3 3.3 2.5 82 1.2 S 2 7 1 4 1020.7 1020.6 0.0
28/05:00am 5.3 3.8 2.8 84 1.0 CALM 0 0 0 0 1020.4 1020.3 0.0
28/04:30am 5.5 4.0 3.0 84 1.0 CALM 0 0 0 0 1020.1 1020.0 0.0
28/04:00am 5.7 3.4 2.9 82 1.2 S 4 7 2 4 1020.2 1020.1 0.0
28/03:30am 5.9 4.5 3.4 84 1.1 CALM 0 0 0 0 1020.1 1020.0 0.0
28/03:00am 6.1 4.7 3.6 84 1.1 CALM 0 0 0 0 1020.3 1020.2 0.0
28/02:30am 5.9 4.4 3.2 83 1.1 CALM 0 0 0 0 1020.4 1020.3 0.0
28/02:00am 6.3 4.9 3.5 82 1.2 CALM 0 0 0 0 1020.9 1020.8 0.0

Other Formats:

Comma delimited format used in spreadsheet applications
http://www.bom.gov.au/fwo/IDN60801/IDN60801.95708.axf

JavaScript Object Notation format (JSON) in row-major order
http://www.bom.gov.au/fwo/IDN60801/IDN60801.95708.json